Time;durP1;ratioP1;P1;durP2;ratioP2;P2;SDS_P1;SDS_P2;PMS_P1;PMS_P2;Temp;Humidity;BMP_temperature;BMP_pressure;BME280_temperature;BME280_humidity;BME280_pressure;Samples;Min_cycle;Max_cycle;Signal;HPM_P1;HPM_P2
2021/06/15 00:01:19;;;;;;;4.30;3.40;;;;;;;15.71;61.78;100298.47;10462232;28;20047;-75
2021/06/15 00:06:21;;;;;;;5.95;3.75;;;;;;;16.01;61.57;100300.53;10463500;28;20045;-74
2021/06/15 00:11:22;;;;;;;4.70;4.20;;;;;;;16.17;60.96;100293.53;10463491;28;20045;-74
2021/06/15 00:16:24;;;;;;;8.18;4.28;;;;;;;15.80;61.88;100292.72;10460862;28;20052;-75
2021/06/15 00:21:26;;;;;;;4.82;4.32;;;;;;;15.55;63.27;100290.38;10461493;28;20041;-75
2021/06/15 00:26:27;;;;;;;11.25;7.15;;;;;;;15.55;63.12;100281.56;10460508;28;20055;-74
2021/06/15 00:31:29;;;;;;;8.77;7.38;;;;;;;15.51;62.91;100280.00;10461205;28;20109;-74
2021/06/15 00:36:31;;;;;;;10.25;9.25;;;;;;;15.37;63.24;100278.03;10461895;28;20487;-74
2021/06/15 00:41:32;;;;;;;9.07;8.27;;;;;;;15.48;63.08;100277.50;10459885;28;20386;-75
2021/06/15 00:46:34;;;;;;;8.52;7.15;;;;;;;15.48;63.19;100281.00;10460532;28;20053;-74
2021/06/15 00:51:36;;;;;;;7.05;6.13;;;;;;;15.78;62.44;100277.84;10460171;28;20439;-75
2021/06/15 00:56:38;;;;;;;8.07;7.28;;;;;;;15.43;63.37;100277.72;10461005;28;20037;-74
2021/06/15 01:01:40;;;;;;;7.60;6.22;;;;;;;15.20;63.84;100284.09;10461459;28;20072;-75
2021/06/15 01:07:03;;;;;;;6.68;6.07;;;;;;;15.09;64.54;100279.28;10460631;28;20049;-75
2021/06/15 01:12:35;;;;;;;7.40;6.07;;;;;;;15.20;64.37;100272.66;10461261;28;20068;-75
2021/06/15 01:17:56;;;;;;;6.95;6.25;;;;;;;15.28;63.94;100267.88;10461906;28;20040;-74
2021/06/15 01:23:35;;;;;;;9.38;6.55;;;;;;;15.18;64.12;100275.38;10461010;28;20033;-74
2021/06/15 01:28:44;;;;;;;7.43;6.55;;;;;;;15.34;63.72;100272.88;10460982;28;20037;-74
2021/06/15 01:33:51;;;;;;;7.70;6.90;;;;;;;15.25;63.61;100268.84;10458494;28;20041;-75
2021/06/15 01:38:57;;;;;;;7.65;6.95;;;;;;;15.20;63.96;100273.53;10459300;28;20413;-74
2021/06/15 01:44:10;;;;;;;9.43;7.45;;;;;;;15.06;64.21;100260.94;10458308;28;20075;-75
2021/06/15 01:49:17;;;;;;;9.25;7.10;;;;;;;15.03;64.28;100269.00;10460308;28;20045;-74
2021/06/15 01:54:23;;;;;;;7.47;6.78;;;;;;;14.89;64.60;100272.28;10459101;28;20159;-73
2021/06/15 01:59:28;;;;;;;8.00;6.93;;;;;;;14.51;65.63;100276.66;10459314;28;20045;-74
2021/06/15 02:04:36;;;;;;;7.32;6.57;;;;;;;14.62;65.78;100273.53;10459226;28;20059;-74
2021/06/15 02:09:40;;;;;;;8.07;7.25;;;;;;;14.59;65.68;100269.22;10460453;28;20445;-74
2021/06/15 02:15:01;;;;;;;7.55;6.05;;;;;;;14.46;65.95;100275.09;10459673;28;20045;-74
2021/06/15 02:20:26;;;;;;;7.28;6.43;;;;;;;14.37;66.28;100279.00;10459478;28;20071;-74
2021/06/15 02:25:33;;;;;;;7.35;6.32;;;;;;;14.38;66.32;100276.28;10467206;28;20072;-74
2021/06/15 02:30:35;;;;;;;8.10;5.68;;;;;;;14.16;67.09;100266.72;10467322;28;20568;-74
2021/06/15 02:35:48;;;;;;;7.63;6.00;;;;;;;14.20;66.60;100270.94;10467767;28;20091;-74
2021/06/15 02:40:57;;;;;;;7.53;6.25;;;;;;;14.34;66.28;100274.72;10467913;28;20382;-74
2021/06/15 02:46:00;;;;;;;7.22;5.78;;;;;;;14.35;66.24;100278.22;10467057;28;20037;-74
2021/06/15 02:51:05;;;;;;;7.30;6.40;;;;;;;14.31;66.26;100279.28;10466335;28;20476;-74
2021/06/15 02:56:14;;;;;;;6.05;5.45;;;;;;;14.01;67.11;100287.59;10449470;28;20049;-74
2021/06/15 03:01:17;;;;;;;6.78;6.18;;;;;;;13.95;67.52;100290.50;10464527;28;20037;-74
2021/06/15 03:06:25;;;;;;;6.78;5.93;;;;;;;14.10;67.09;100303.06;10483845;23;20514;-69
2021/06/15 03:11:29;;;;;;;6.53;5.93;;;;;;;13.94;67.54;100306.41;10485302;28;20037;-69
2021/06/15 03:16:34;;;;;;;6.65;5.95;;;;;;;13.85;67.72;100303.19;10503210;28;20099;-69
2021/06/15 03:21:44;;;;;;;7.47;6.63;;;;;;;13.75;68.01;100298.38;10484991;28;20036;-69
2021/06/15 03:27:01;;;;;;;6.93;6.28;;;;;;;13.63;68.68;100307.63;10485313;28;20417;-69
2021/06/15 03:32:16;;;;;;;6.63;6.03;;;;;;;14.11;67.52;100312.69;10484997;28;20045;-69
2021/06/15 03:37:22;;;;;;;7.40;6.70;;;;;;;14.10;67.16;100313.63;10485276;28;20098;-70
2021/06/15 03:42:33;;;;;;;8.25;6.32;;;;;;;13.89;67.87;100314.50;10484242;28;20063;-70
2021/06/15 03:47:38;;;;;;;6.07;5.45;;;;;;;14.02;67.46;100307.81;10485211;28;20043;-71
2021/06/15 03:52:40;;;;;;;7.97;6.50;;;;;;;14.24;66.81;100297.19;10484400;28;20132;-70
2021/06/15 03:57:44;;;;;;;7.60;6.85;;;;;;;14.24;66.78;100305.13;10502926;28;20055;-70
2021/06/15 04:02:50;;;;;;;8.60;6.80;;;;;;;14.10;67.77;100315.41;10503907;28;20044;-70
2021/06/15 04:07:53;;;;;;;6.90;6.20;;;;;;;14.23;67.46;100300.75;10484280;28;20509;-70
2021/06/15 04:12:55;;;;;;;7.38;6.55;;;;;;;14.35;67.17;100302.03;10502054;28;20044;-70
2021/06/15 04:18:00;;;;;;;7.85;7.15;;;;;;;14.20;67.48;100302.66;10485922;28;20052;-70
2021/06/15 04:23:06;;;;;;;7.50;6.22;;;;;;;14.39;67.49;100301.84;10484490;28;20036;-71
2021/06/15 04:28:10;;;;;;;7.25;5.45;;;;;;;14.83;65.51;100299.03;10484223;28;20093;-70
2021/06/15 04:33:13;;;;;;;7.07;5.03;;;;;;;15.13;65.22;100303.84;10501771;28;20040;-71
2021/06/15 04:38:22;;;;;;;6.35;5.78;;;;;;;15.23;65.34;100304.28;10501998;28;20066;-70
2021/06/15 04:43:32;;;;;;;5.78;5.15;;;;;;;15.57;63.59;100307.06;10500598;28;20050;-70
2021/06/15 04:48:38;;;;;;;4.85;4.35;;;;;;;15.71;63.48;100303.75;10501041;28;20147;-70
2021/06/15 04:53:43;;;;;;;5.10;4.60;;;;;;;16.04;62.73;100317.16;10483258;28;20592;-71
2021/06/15 04:58:47;;;;;;;11.57;4.22;;;;;;;16.74;60.10;100310.06;10499772;28;20524;-71
2021/06/15 05:03:50;;;;;;;5.07;4.57;;;;;;;16.62;60.33;100316.84;10500283;28;20148;-71
2021/06/15 05:08:58;;;;;;;9.48;3.85;;;;;;;17.35;58.40;100317.38;10499533;28;20056;-71
2021/06/15 05:14:02;;;;;;;5.22;4.03;;;;;;;17.65;57.85;100309.47;10498834;28;20444;-71
2021/06/15 05:19:04;;;;;;;4.47;3.53;;;;;;;17.76;57.54;100316.03;10499531;28;20409;-70
2021/06/15 05:24:19;;;;;;;6.47;5.45;;;;;;;17.63;57.67;100318.50;10464402;28;20498;-70
2021/06/15 05:29:20;;;;;;;5.10;3.70;;;;;;;17.87;57.37;100318.91;10499475;28;20045;-70
2021/06/15 05:34:22;;;;;;;4.93;4.20;;;;;;;18.47;55.65;100326.06;10499256;28;20041;-70
2021/06/15 05:39:23;;;;;;;4.63;4.22;;;;;;;19.29;54.33;100314.81;10498281;28;20048;-70
2021/06/15 05:44:25;;;;;;;5.97;3.70;;;;;;;19.72;53.03;100320.09;10498552;28;20040;-70
2021/06/15 05:49:27;;;;;;;5.60;3.40;;;;;;;20.79;49.29;100316.41;10480167;28;20047;-70
2021/06/15 05:54:29;;;;;;;6.25;3.33;;;;;;;20.48;50.69;100327.50;10497756;28;20119;-71
2021/06/15 05:59:31;;;;;;;4.03;3.22;;;;;;;20.60;51.13;100322.16;10479543;28;20048;-71
2021/06/15 06:10:00;;;;;;;5.47;2.72;;;;;;;20.88;51.03;100325.59;10466610;28;20065;-70
2021/06/15 06:15:07;;;;;;;5.15;3.17;;;;;;;21.74;49.46;100330.19;10497191;28;20040;-69
2021/06/15 06:20:11;;;;;;;7.40;3.67;;;;;;;22.26;48.03;100327.13;10477797;28;20101;-70
2021/06/15 06:25:14;;;;;;;9.77;2.90;;;;;;;22.55;47.24;100321.41;10497945;28;20098;-70
2021/06/15 06:30:16;;;;;;;5.93;3.10;;;;;;;22.70;46.70;100330.91;10496949;28;20041;-71
2021/06/15 06:35:18;;;;;;;4.57;3.15;;;;;;;23.12;46.02;100332.09;10479274;28;20461;-71
2021/06/15 06:40:19;;;;;;;7.07;2.85;;;;;;;23.33;46.94;100334.91;10498498;28;20047;-70
2021/06/15 06:45:21;;;;;;;4.28;2.75;;;;;;;23.74;44.77;100328.03;10498626;28;20052;-70
2021/06/15 06:50:23;;;;;;;3.83;2.80;;;;;;;24.08;45.58;100333.28;10497983;28;20363;-69
2021/06/15 06:55:24;;;;;;;7.72;2.90;;;;;;;24.22;44.59;100333.00;10497899;28;20044;-69
2021/06/15 07:00:26;;;;;;;3.97;2.92;;;;;;;23.99;45.52;100337.56;10498208;28;20044;-69
2021/06/15 07:05:28;;;;;;;5.50;3.35;;;;;;;24.22;45.54;100337.53;10497367;28;20441;-68
2021/06/15 07:10:30;;;;;;;5.13;3.20;;;;;;;24.29;44.83;100323.41;10503152;28;20509;-69
2021/06/15 07:15:31;;;;;;;6.65;3.72;;;;;;;24.73;44.57;100321.50;10503792;28;20460;-69
2021/06/15 07:20:33;;;;;;;8.82;3.00;;;;;;;25.40;42.83;100318.28;10485561;28;20048;-71
2021/06/15 07:25:35;;;;;;;4.88;2.55;;;;;;;25.56;43.10;100315.06;10503241;28;20043;-70
2021/06/15 07:30:37;;;;;;;5.20;2.50;;;;;;;25.54;44.18;100316.19;10503146;28;20052;-71
2021/06/15 07:35:47;;;;;;;4.63;3.15;;;;;;;25.59;43.72;100313.97;10503823;28;20082;-71
2021/06/15 07:40:49;;;;;;;6.55;3.38;;;;;;;26.04;43.58;100319.72;10503374;28;20090;-71
2021/06/15 07:45:51;;;;;;;4.30;2.92;;;;;;;25.99;42.66;100310.34;10485964;28;20052;-70
2021/06/15 07:50:53;;;;;;;6.20;2.53;;;;;;;26.05;42.79;100310.63;10483972;28;20048;-71
2021/06/15 07:55:54;;;;;;;4.55;2.72;;;;;;;25.82;43.15;100306.50;10502405;28;20075;-70
2021/06/15 08:00:56;;;;;;;7.85;2.88;;;;;;;25.73;43.22;100305.47;10501680;28;20036;-70
2021/06/15 08:05:57;;;;;;;3.13;2.78;;;;;;;26.10;43.14;100307.50;10511590;28;20494;-71
2021/06/15 08:11:00;;;;;;;4.82;2.88;;;;;;;26.71;42.40;100300.94;10537554;28;20056;-70
2021/06/15 08:16:03;;;;;;;4.05;2.50;;;;;;;26.37;43.51;100304.09;10501047;28;20045;-70
2021/06/15 08:21:05;;;;;;;6.80;3.47;;;;;;;25.72;43.71;100308.28;10517909;28;20125;-70
2021/06/15 08:26:07;;;;;;;7.68;2.30;;;;;;;26.47;43.06;100304.09;10542392;28;20090;-70
2021/06/15 08:31:09;;;;;;;3.22;2.22;;;;;;;27.10;41.47;100299.00;10542405;28;20070;-70
2021/06/15 08:36:11;;;;;;;5.13;2.35;;;;;;;27.52;42.44;100311.97;10542172;28;20466;-70
2021/06/15 08:41:17;;;;;;;4.40;2.15;;;;;;;28.24;41.70;100315.59;10501816;28;20116;-70
2021/06/15 08:46:20;;;;;;;3.38;1.95;;;;;;;28.43;40.69;100309.22;10501672;28;20078;-70
2021/06/15 08:51:22;;;;;;;5.40;1.88;;;;;;;28.07;38.83;100307.38;10499988;28;20469;-70
2021/06/15 08:56:30;;;;;;;4.97;1.75;;;;;;;27.50;38.68;100312.13;10481825;28;20053;-68
2021/06/15 09:01:32;;;;;;;3.03;1.40;;;;;;;27.84;38.59;100312.34;10499743;28;20070;-69
2021/06/15 09:06:34;;;;;;;3.03;1.70;;;;;;;27.74;39.63;100305.34;10472340;22;20054;-75
2021/06/15 09:12:05;;;;;;;3.28;1.80;;;;;;;27.01;41.82;100310.66;10416001;28;20050;-73
2021/06/15 09:17:13;;;;;;;4.82;1.88;;;;;;;26.60;43.82;100307.34;10332999;28;20173;-74
2021/06/15 09:22:41;;;;;;;4.05;1.50;;;;;;;27.29;44.10;100306.97;10314673;28;20116;-75
2021/06/15 09:27:43;;;;;;;3.15;1.83;;;;;;;28.01;41.95;100304.41;10293614;28;20046;-72
2021/06/15 09:32:46;;;;;;;4.35;2.05;;;;;;;27.60;42.00;100303.97;10311467;28;20152;-72
2021/06/15 09:37:54;;;;;;;4.68;1.77;;;;;;;28.39;39.31;100301.41;10312685;28;20065;-71
2021/06/15 09:43:09;;;;;;;3.25;1.75;;;;;;;28.51;39.80;100307.41;10291209;28;20129;-70
2021/06/15 09:48:29;;;;;;;2.45;1.77;;;;;;;27.63;41.75;100299.13;10324270;28;20059;-71
2021/06/15 09:53:35;;;;;;;2.65;1.92;;;;;;;28.29;40.77;100302.44;10355009;28;20491;-72
2021/06/15 09:58:56;;;;;;;3.33;1.88;;;;;;;29.17;36.21;100305.97;10376663;28;20041;-71
2021/06/15 10:04:22;;;;;;;4.00;1.85;;;;;;;28.85;38.24;100306.59;10375032;28;20042;-71
2021/06/15 10:09:24;;;;;;;4.10;1.92;;;;;;;28.82;37.54;100306.91;10375350;28;20045;-71
2021/06/15 10:14:27;;;;;;;2.70;1.58;;;;;;;28.36;38.87;100304.41;10375694;28;20046;-71
2021/06/15 10:19:29;;;;;;;3.22;1.40;;;;;;;28.65;39.08;100287.06;10377638;28;20458;-72
2021/06/15 10:24:32;;;;;;;3.17;1.90;;;;;;;29.03;38.71;100287.63;10374266;28;20045;-71
2021/06/15 10:29:37;;;;;;;5.18;2.00;;;;;;;28.63;37.22;100286.34;10373524;28;20045;-71
2021/06/15 10:34:47;;;;;;;4.82;1.60;;;;;;;29.27;36.74;100282.34;10371572;28;20044;-72
2021/06/15 10:39:49;;;;;;;4.88;1.67;;;;;;;29.88;36.17;100273.03;10374031;28;20046;-72
2021/06/15 10:45:17;;;;;;;3.17;1.83;;;;;;;30.21;36.47;100264.94;10381524;28;20044;-72
2021/06/15 10:50:37;;;;;;;2.42;1.80;;;;;;;30.29;34.38;100273.06;10381069;28;20049;-72
2021/06/15 10:55:52;;;;;;;3.40;1.70;;;;;;;30.05;33.65;100271.16;10380937;28;20100;-71
2021/06/15 11:00:54;;;;;;;1.75;1.58;;;;;;;29.49;36.05;100267.34;10381374;28;20049;-72
2021/06/15 11:05:59;;;;;;;5.53;1.80;;;;;;;29.96;33.64;100253.19;10384117;28;20382;-72
2021/06/15 11:11:04;;;;;;;2.45;1.70;;;;;;;29.90;36.25;100249.31;10381704;28;20038;-72
2021/06/15 11:16:06;;;;;;;2.63;1.95;;;;;;;30.22;35.39;100257.66;10381839;28;20446;-73
2021/06/15 11:21:26;;;;;;;3.00;2.00;;;;;;;30.11;34.44;100253.41;10397016;28;20046;-72
2021/06/15 11:26:35;;;;;;;3.35;1.70;;;;;;;30.25;35.22;100241.03;10384589;28;20046;-71
2021/06/15 11:31:37;;;;;;;3.00;1.60;;;;;;;30.09;34.42;100247.28;10381906;28;20084;-72
2021/06/15 11:36:41;;;;;;;2.42;1.58;;;;;;;29.92;35.39;100247.25;10396394;28;20072;-72
2021/06/15 11:42:18;;;;;;;2.85;1.60;;;;;;;30.12;34.40;100239.66;10380592;28;20037;-72
2021/06/15 11:47:32;;;;;;;3.33;1.98;;;;;;;29.53;35.15;100248.88;10398074;28;20053;-72
2021/06/15 11:52:37;;;;;;;4.28;2.17;;;;;;;29.10;35.46;100240.81;10381268;28;20052;-71
2021/06/15 11:57:39;;;;;;;5.90;2.13;;;;;;;29.18;38.82;100245.41;10381420;28;20050;-72
2021/06/15 12:02:41;;;;;;;2.20;1.85;;;;;;;29.54;35.58;100235.19;10379756;28;20103;-73
2021/06/15 12:07:51;;;;;;;3.00;1.83;;;;;;;29.89;36.17;100239.50;10379240;28;20050;-73
2021/06/15 12:12:56;;;;;;;4.13;1.83;;;;;;;29.57;36.86;100234.91;10382207;28;20029;-73
2021/06/15 12:17:57;;;;;;;2.23;1.47;;;;;;;29.16;35.77;100229.31;10379858;28;20176;-75
2021/06/15 12:23:22;;;;;;;4.20;2.13;;;;;;;28.64;35.89;100223.13;10379346;28;20037;-74
2021/06/15 12:28:24;;;;;;;2.13;1.60;;;;;;;28.79;35.32;100226.94;10382661;28;20506;-74
2021/06/15 12:33:26;;;;;;;2.50;1.67;;;;;;;29.23;37.11;100225.97;10383846;28;20573;-76
2021/06/15 12:38:28;;;;;;;3.45;1.67;;;;;;;29.25;34.90;100223.94;10382217;28;20045;-73
2021/06/15 12:43:31;;;;;;;1.90;1.70;;;;;;;29.39;34.70;100224.13;10379252;28;20455;-74
2021/06/15 12:48:34;;;;;;;1.75;1.50;;;;;;;29.08;36.54;100214.91;10377951;28;20072;-74
2021/06/15 12:53:37;;;;;;;2.33;1.50;;;;;;;29.29;37.82;100218.03;10379429;28;20042;-72
2021/06/15 12:58:40;;;;;;;2.60;1.77;;;;;;;29.20;35.68;100216.31;10381617;28;20046;-74
2021/06/15 13:03:43;;;;;;;2.17;1.55;;;;;;;28.92;35.34;100212.97;10377977;28;20045;-74
2021/06/15 13:08:46;;;;;;;3.90;1.98;;;;;;;28.71;36.49;100210.66;10379427;28;20045;-72
2021/06/15 13:13:53;;;;;;;1.95;1.60;;;;;;;28.59;36.15;100226.31;10382063;28;20046;-73
2021/06/15 13:19:03;;;;;;;1.65;1.48;;;;;;;28.66;36.39;100221.97;10378961;28;20458;-72
2021/06/15 13:24:09;;;;;;;3.95;1.95;;;;;;;28.78;36.00;100225.25;10359720;28;20153;-73
2021/06/15 13:29:11;;;;;;;5.07;1.58;;;;;;;28.61;35.86;100212.66;10375501;28;20050;-74
2021/06/15 13:34:13;;;;;;;4.72;2.05;;;;;;;28.48;36.07;100218.50;10376868;28;20046;-72
2021/06/15 13:39:18;;;;;;;2.17;1.80;;;;;;;28.32;37.09;100221.06;10361693;28;20058;-73
2021/06/15 13:44:35;;;;;;;1.60;1.50;;;;;;;28.09;37.57;100221.56;10377161;28;20046;-73
2021/06/15 13:49:37;;;;;;;3.83;1.70;;;;;;;28.08;38.53;100227.97;10375158;28;20069;-73
2021/06/15 13:54:39;;;;;;;3.58;1.75;;;;;;;28.67;38.92;100220.13;10375509;28;20049;-71
2021/06/15 13:59:40;;;;;;;3.63;1.70;;;;;;;28.19;38.74;100224.16;10375548;28;20484;-72
2021/06/15 14:04:42;;;;;;;8.23;2.58;;;;;;;28.29;39.49;100213.25;10379201;28;20104;-71
2021/06/15 14:09:43;;;;;;;3.05;1.90;;;;;;;28.49;38.89;100219.34;10376375;28;20042;-72
2021/06/15 14:14:45;;;;;;;4.72;2.10;;;;;;;28.64;40.26;100220.44;10378836;28;20046;-73
2021/06/15 14:19:49;;;;;;;4.45;1.98;;;;;;;29.05;38.56;100207.97;10385964;28;20052;-73
2021/06/15 14:24:52;;;;;;;8.23;1.95;;;;;;;28.56;38.61;100213.13;10387701;28;20399;-72
2021/06/15 14:29:53;;;;;;;6.55;1.90;;;;;;;28.58;38.95;100221.94;10384324;28;20041;-75
2021/06/15 14:34:55;;;;;;;4.38;2.20;;;;;;;28.90;37.70;100218.53;10385055;28;20050;-72
2021/06/15 14:39:57;;;;;;;2.83;1.98;;;;;;;28.55;39.34;100218.69;10384438;28;20038;-73
2021/06/15 14:44:59;;;;;;;5.35;1.95;;;;;;;28.65;40.38;100217.59;10385901;28;20046;-73
2021/06/15 14:50:01;;;;;;;3.90;1.73;;;;;;;28.59;38.68;100215.50;10383603;28;20068;-72
2021/06/15 14:55:04;;;;;;;2.83;2.47;;;;;;;28.17;39.89;100216.22;10385151;28;20050;-74
2021/06/15 15:00:09;;;;;;;3.10;2.22;;;;;;;27.87;41.31;100220.19;10386244;28;20046;-73
2021/06/15 15:05:12;;;;;;;3.85;2.25;;;;;;;28.01;41.08;100221.50;10401891;23;20053;-72
2021/06/15 15:10:16;;;;;;;3.80;2.22;;;;;;;28.20;40.36;100214.19;10506467;28;20051;-72
2021/06/15 15:15:19;;;;;;;5.40;3.67;;;;;;;28.32;40.58;100212.94;10506394;28;20036;-71
2021/06/15 15:20:21;;;;;;;3.78;2.55;;;;;;;28.04;40.05;100214.94;10505881;28;20049;-71
2021/06/15 15:25:23;;;;;;;3.17;2.65;;;;;;;27.71;41.56;100217.31;10507499;28;20051;-72
2021/06/15 15:30:25;;;;;;;2.28;1.80;;;;;;;27.93;40.89;100210.63;10505703;28;20489;-72
2021/06/15 15:35:27;;;;;;;3.78;3.13;;;;;;;27.83;40.48;100218.81;10505081;28;20047;-72
2021/06/15 15:40:30;;;;;;;3.25;2.15;;;;;;;28.15;40.03;100207.41;10504724;28;20529;-73
2021/06/15 15:45:33;;;;;;;12.55;2.55;;;;;;;27.94;39.66;100208.78;10504985;28;20040;-71
2021/06/15 15:50:36;;;;;;;4.68;2.10;;;;;;;27.70;41.10;100209.38;10503643;28;20390;-72
2021/06/15 15:55:37;;;;;;;4.05;1.88;;;;;;;27.74;40.64;100205.41;10503559;28;20044;-72
2021/06/15 16:00:39;;;;;;;2.30;2.10;;;;;;;27.95;38.85;100205.09;10504710;28;20466;-72
2021/06/15 16:05:41;;;;;;;2.40;1.70;;;;;;;27.87;38.57;100201.28;10503646;28;20068;-71
2021/06/15 16:10:43;;;;;;;4.40;2.30;;;;;;;27.95;39.19;100200.53;10487113;28;20140;-73
2021/06/15 16:15:44;;;;;;;2.95;2.20;;;;;;;28.36;37.05;100192.72;10505795;28;20086;-72
2021/06/15 16:20:46;;;;;;;2.05;1.80;;;;;;;27.96;39.25;100201.38;10503343;28;20420;-73
2021/06/15 16:25:48;;;;;;;4.05;2.33;;;;;;;27.81;39.48;100188.41;10505018;28;20040;-72
2021/06/15 16:30:49;;;;;;;3.28;2.63;;;;;;;27.70;39.92;100195.88;10504814;28;20086;-72
2021/06/15 16:35:51;;;;;;;3.95;2.90;;;;;;;26.94;42.31;100193.53;10505711;28;20094;-72
2021/06/15 16:40:53;;;;;;;3.70;3.10;;;;;;;26.78;42.24;100195.00;10504549;28;20071;-72
2021/06/15 16:45:55;;;;;;;5.82;3.20;;;;;;;26.66;42.43;100194.38;10503152;28;20040;-72
2021/06/15 16:50:56;;;;;;;3.35;3.05;;;;;;;26.49;43.05;100194.31;10501601;28;20057;-72
2021/06/15 16:55:58;;;;;;;3.42;2.65;;;;;;;26.65;43.16;100195.38;10503254;28;20387;-73
2021/06/15 17:01:00;;;;;;;5.43;2.97;;;;;;;26.46;43.40;100190.03;10503613;28;20384;-72
2021/06/15 17:06:02;;;;;;;4.05;2.88;;;;;;;26.49;42.10;100188.91;10504414;28;20044;-72
2021/06/15 17:11:03;;;;;;;4.60;3.25;;;;;;;26.34;42.05;100196.56;10503557;28;20123;-72
2021/06/15 17:16:05;;;;;;;7.43;3.20;;;;;;;26.24;42.92;100193.91;10504306;28;20036;-72
2021/06/15 17:21:08;;;;;;;5.80;2.50;;;;;;;26.24;43.64;100193.06;10503606;28;20040;-71
2021/06/15 17:26:10;;;;;;;3.53;2.42;;;;;;;26.39;42.98;100180.81;10503404;28;20460;-72
2021/06/15 17:31:12;;;;;;;3.90;3.60;;;;;;;26.58;43.19;100172.69;10504915;28;20055;-72
2021/06/15 17:36:16;;;;;;;6.20;3.08;;;;;;;26.37;43.76;100169.31;10503564;28;20121;-71
2021/06/15 17:41:20;;;;;;;3.63;3.27;;;;;;;26.19;43.27;100173.78;10501967;28;20071;-71
2021/06/15 17:46:22;;;;;;;3.50;3.20;;;;;;;26.08;43.38;100175.66;10501996;28;20775;-72
2021/06/15 17:51:24;;;;;;;6.47;3.05;;;;;;;25.97;43.71;100169.56;10501097;28;20087;-72
2021/06/15 17:56:26;;;;;;;4.93;3.60;;;;;;;25.66;43.72;100175.09;10501664;28;20044;-72
2021/06/15 18:01:28;;;;;;;5.43;3.15;;;;;;;25.67;43.85;100171.41;10504816;28;20052;-71
2021/06/15 18:06:31;;;;;;;4.90;2.90;;;;;;;25.49;43.93;100173.09;10503222;28;20427;-72
2021/06/15 18:11:37;;;;;;;3.92;2.60;;;;;;;25.42;44.48;100181.75;10516317;28;20048;-72
2021/06/15 18:16:42;;;;;;;5.28;3.17;;;;;;;25.36;44.24;100178.75;10531840;28;20060;-71
2021/06/15 18:21:44;;;;;;;3.80;3.03;;;;;;;25.30;43.54;100190.94;10519764;28;20074;-72
2021/06/15 18:26:45;;;;;;;3.85;3.30;;;;;;;25.07;44.08;100190.31;10505482;28;20070;-73
2021/06/15 18:31:47;;;;;;;4.50;3.42;;;;;;;25.12;43.92;100187.22;10500502;28;20406;-74
2021/06/15 18:36:49;;;;;;;4.53;3.38;;;;;;;24.89;44.75;100190.13;10461581;28;20052;-72
2021/06/15 18:41:51;;;;;;;4.95;3.72;;;;;;;24.64;44.68;100194.13;10464267;28;20052;-73
2021/06/15 18:46:55;;;;;;;4.38;3.70;;;;;;;24.44;44.91;100199.53;10462694;28;20049;-73
2021/06/15 18:51:57;;;;;;;3.55;3.25;;;;;;;24.52;45.24;100197.88;10470798;28;20041;-74
2021/06/15 18:56:59;;;;;;;4.13;3.72;;;;;;;24.59;45.07;100198.19;10464986;28;20045;-73
2021/06/15 19:02:00;;;;;;;3.83;3.30;;;;;;;24.43;45.65;100201.38;10465212;28;20044;-74
2021/06/15 19:07:02;;;;;;;4.05;3.58;;;;;;;24.21;45.57;100205.03;10473227;28;20041;-75
2021/06/15 19:12:05;;;;;;;4.65;3.55;;;;;;;23.98;46.30;100207.00;10472955;28;20045;-73
2021/06/15 19:17:06;;;;;;;4.38;3.97;;;;;;;23.83;46.28;100208.31;10472735;28;20422;-74
2021/06/15 19:22:08;;;;;;;7.40;4.00;;;;;;;23.65;47.55;100222.28;10473594;28;20029;-74
2021/06/15 19:27:10;;;;;;;5.50;4.47;;;;;;;23.59;47.94;100217.38;10473062;28;20041;-74
2021/06/15 19:32:12;;;;;;;4.07;3.65;;;;;;;23.39;48.43;100224.41;10471178;28;20049;-75
2021/06/15 19:37:13;;;;;;;6.07;4.35;;;;;;;23.54;48.94;100227.66;10473004;28;20095;-73
2021/06/15 19:42:15;;;;;;;4.35;3.88;;;;;;;23.27;49.96;100229.94;10472056;28;20063;-72
2021/06/15 19:47:17;;;;;;;5.85;4.28;;;;;;;23.04;50.97;100240.69;10473973;28;20131;-73
2021/06/15 19:52:20;;;;;;;5.03;4.53;;;;;;;22.99;51.33;100252.75;10487955;28;20040;-73
2021/06/15 19:57:22;;;;;;;5.53;4.70;;;;;;;23.06;51.59;100254.81;10488775;28;20045;-73
2021/06/15 20:02:24;;;;;;;7.47;4.72;;;;;;;22.89;52.17;100252.63;10473501;28;20075;-73
2021/06/15 20:07:26;;;;;;;5.07;4.55;;;;;;;22.86;52.55;100253.69;10481894;28;20139;-74
2021/06/15 20:12:29;;;;;;;6.07;4.50;;;;;;;22.67;53.47;100251.63;10491532;28;20071;-73
2021/06/15 20:17:31;;;;;;;6.13;5.15;;;;;;;22.37;53.95;100252.19;10475571;28;20068;-73
2021/06/15 20:22:34;;;;;;;9.13;5.25;;;;;;;22.37;54.14;100256.72;10490735;28;20045;-72
2021/06/15 20:27:37;;;;;;;5.00;4.55;;;;;;;22.24;54.50;100259.47;10489812;28;20045;-73
2021/06/15 20:32:40;;;;;;;5.13;4.72;;;;;;;22.31;54.61;100257.16;10493272;28;20071;-73
2021/06/15 20:37:42;;;;;;;4.85;4.45;;;;;;;22.19;55.04;100268.84;10483603;28;20052;-73
2021/06/15 20:42:45;;;;;;;6.72;5.60;;;;;;;22.19;55.33;100271.50;10489191;28;20444;-73
2021/06/15 20:47:47;;;;;;;5.28;4.75;;;;;;;22.11;55.47;100280.94;10473500;28;20045;-73
2021/06/15 20:52:50;;;;;;;5.40;5.00;;;;;;;21.97;56.15;100291.00;10475663;28;20139;-73
2021/06/15 20:57:54;;;;;;;5.60;5.10;;;;;;;22.00;56.58;100293.41;10488938;28;20041;-72
2021/06/15 21:02:58;;;;;;;5.55;4.75;;;;;;;22.05;56.33;100291.28;10485506;28;20413;-73
2021/06/15 21:08:01;;;;;;;5.85;5.38;;;;;;;22.16;56.30;100300.22;10481864;23;20049;-72
2021/06/15 21:13:06;;;;;;;5.75;5.25;;;;;;;21.71;57.53;100299.13;10420668;28;20033;-72
2021/06/15 21:18:08;;;;;;;7.25;4.90;;;;;;;21.81;57.45;100302.81;10419832;28;20099;-71
2021/06/15 21:23:10;;;;;;;6.00;5.50;;;;;;;21.40;58.41;100297.84;10421620;28;20047;-71
2021/06/15 21:28:12;;;;;;;9.23;5.85;;;;;;;21.46;58.62;100297.41;10432727;28;20048;-71
2021/06/15 21:33:14;;;;;;;6.05;5.55;;;;;;;21.27;59.03;100295.19;10419324;28;20072;-71
2021/06/15 21:38:16;;;;;;;5.80;5.40;;;;;;;21.14;59.29;100297.03;10418350;28;20045;-71
2021/06/15 21:43:17;;;;;;;6.00;5.50;;;;;;;21.36;59.40;100299.03;10418355;28;20045;-70
2021/06/15 21:48:19;;;;;;;6.65;5.78;;;;;;;21.10;59.56;100300.88;10415679;28;20140;-71
2021/06/15 21:53:21;;;;;;;5.78;5.28;;;;;;;20.92;60.38;100300.38;10416079;28;20064;-71
2021/06/15 21:58:23;;;;;;;6.18;5.57;;;;;;;20.76;60.72;100307.72;10416491;28;20080;-71
2021/06/15 22:03:25;;;;;;;6.18;5.65;;;;;;;20.89;60.81;100301.44;10414830;28;20045;-71
2021/06/15 22:08:26;;;;;;;7.07;6.40;;;;;;;20.84;60.72;100303.56;10417750;28;20120;-70
2021/06/15 22:13:28;;;;;;;6.60;6.10;;;;;;;20.59;61.13;100315.13;10415881;28;20049;-71
2021/06/15 22:18:29;;;;;;;5.93;5.53;;;;;;;20.24;62.39;100316.63;10416042;28;20491;-71
2021/06/15 22:23:32;;;;;;;7.00;6.40;;;;;;;20.22;62.89;100319.41;10414039;28;20046;-71
2021/06/15 22:28:33;;;;;;;6.45;6.00;;;;;;;20.10;63.03;100317.56;10416901;28;20056;-71
2021/06/15 22:33:35;;;;;;;6.93;6.32;;;;;;;20.44;62.80;100315.28;10415025;28;20060;-70
2021/06/15 22:38:37;;;;;;;7.60;6.95;;;;;;;20.41;62.54;100316.34;10419881;28;20099;-71
2021/06/15 22:43:39;;;;;;;7.18;6.68;;;;;;;20.28;62.75;100326.16;10423895;28;20050;-72
2021/06/15 22:48:40;;;;;;;6.97;6.47;;;;;;;20.05;63.57;100328.53;10423774;28;20499;-71
2021/06/15 22:53:42;;;;;;;7.32;6.68;;;;;;;19.83;64.45;100314.88;10424627;28;20103;-71
2021/06/15 22:58:43;;;;;;;7.35;6.75;;;;;;;19.91;64.49;100313.44;10437941;28;20187;-70
2021/06/15 23:03:45;;;;;;;7.40;6.78;;;;;;;20.08;63.75;100324.81;10438150;28;20107;-70
2021/06/15 23:08:46;;;;;;;7.82;7.22;;;;;;;19.87;64.32;100321.75;10421994;28;20095;-71
2021/06/15 23:13:48;;;;;;;8.02;7.32;;;;;;;19.68;64.96;100321.25;10424602;28;20506;-71
2021/06/15 23:18:54;;;;;;;8.60;7.93;;;;;;;19.64;65.21;100320.56;10422253;28;20063;-70
2021/06/15 23:23:55;;;;;;;8.95;8.25;;;;;;;19.48;65.64;100315.38;10422798;28;20099;-71